sensor_id;sensor_type;location;lat;lon;timestamp;pressure;altitude;pressure_sealevel;temperature;humidity
60583;BME280;46415;47.536;19.066;2022-12-24T00:00:38;99844.38;;;3.69;100.00
60583;BME280;46415;47.536;19.066;2022-12-24T00:03:41;99848.72;;;3.67;100.00
60583;BME280;46415;47.536;19.066;2022-12-24T00:06:44;99847.06;;;3.63;100.00
60583;BME280;46415;47.536;19.066;2022-12-24T00:09:47;99847.84;;;3.68;100.00
60583;BME280;46415;47.536;19.066;2022-12-24T00:12:50;99845.31;;;3.65;100.00
60583;BME280;46415;47.536;19.066;2022-12-24T00:15:53;99847.91;;;3.65;100.00
60583;BME280;46415;47.536;19.066;2022-12-24T00:18:55;99849.66;;;3.63;100.00
60583;BME280;46415;47.536;19.066;2022-12-24T00:21:58;99853.88;;;3.66;100.00
60583;BME280;46415;47.536;19.066;2022-12-24T00:25:01;99854.00;;;3.61;100.00
60583;BME280;46415;47.536;19.066;2022-12-24T00:28:07;99855.75;;;3.59;100.00
60583;BME280;46415;47.536;19.066;2022-12-24T00:31:16;99846.41;;;3.57;100.00
60583;BME280;46415;47.536;19.066;2022-12-24T00:34:22;99837.88;;;3.56;100.00
60583;BME280;46415;47.536;19.066;2022-12-24T00:37:24;99846.41;;;3.57;100.00
60583;BME280;46415;47.536;19.066;2022-12-24T00:40:30;99847.34;;;3.53;100.00
60583;BME280;46415;47.536;19.066;2022-12-24T00:43:33;99861.03;;;3.52;100.00
60583;BME280;46415;47.536;19.066;2022-12-24T00:46:39;99869.50;;;3.57;100.00
60583;BME280;46415;47.536;19.066;2022-12-24T00:49:43;99881.41;;;3.58;100.00
60583;BME280;46415;47.536;19.066;2022-12-24T00:52:46;99901.87;;;3.61;100.00
60583;BME280;46415;47.536;19.066;2022-12-24T00:55:48;99882.22;;;3.61;100.00
60583;BME280;46415;47.536;19.066;2022-12-24T00:58:54;99867.69;;;3.60;100.00
60583;BME280;46415;47.536;19.066;2022-12-24T01:01:57;99865.22;;;3.57;100.00
60583;BME280;46415;47.536;19.066;2022-12-24T01:05:00;99872.81;;;3.60;100.00
60583;BME280;46415;47.536;19.066;2022-12-24T01:08:11;99865.72;;;3.72;100.00
60583;BME280;46415;47.536;19.066;2022-12-24T01:11:14;99845.19;;;3.72;100.00
60583;BME280;46415;47.536;19.066;2022-12-24T01:14:17;99821.25;;;3.71;100.00
60583;BME280;46415;47.536;19.066;2022-12-24T01:17:20;99822.66;;;3.83;100.00
60583;BME280;46415;47.536;19.066;2022-12-24T01:20:27;99809.81;;;3.83;100.00
60583;BME280;46415;47.536;19.066;2022-12-24T01:23:33;99804.69;;;3.83;100.00
60583;BME280;46415;47.536;19.066;2022-12-24T01:26:35;99792.50;;;3.91;100.00
60583;BME280;46415;47.536;19.066;2022-12-24T01:29:38;99792.25;;;4.00;100.00
60583;BME280;46415;47.536;19.066;2022-12-24T01:32:41;99795.47;;;4.08;100.00
60583;BME280;46415;47.536;19.066;2022-12-24T01:35:44;99793.50;;;4.18;100.00
60583;BME280;46415;47.536;19.066;2022-12-24T01:38:47;99779.75;;;4.20;100.00
60583;BME280;46415;47.536;19.066;2022-12-24T01:41:50;99781.09;;;4.33;100.00
60583;BME280;46415;47.536;19.066;2022-12-24T01:45:42;99786.25;;;4.33;100.00
60583;BME280;46415;47.536;19.066;2022-12-24T01:49:00;99782.84;;;4.31;100.00
60583;BME280;46415;47.536;19.066;2022-12-24T01:52:09;99793.81;;;4.38;100.00
60583;BME280;46415;47.536;19.066;2022-12-24T01:55:15;99781.00;;;4.36;100.00
60583;BME280;46415;47.536;19.066;2022-12-24T01:58:21;99789.59;;;4.35;100.00
60583;BME280;46415;47.536;19.066;2022-12-24T02:01:25;99790.41;;;4.37;100.00
60583;BME280;46415;47.536;19.066;2022-12-24T02:05:01;99794.66;;;4.38;100.00
60583;BME280;46415;47.536;19.066;2022-12-24T02:08:05;99802.31;;;4.40;100.00
60583;BME280;46415;47.536;19.066;2022-12-24T02:11:15;99781.81;;;4.38;100.00
60583;BME280;46415;47.536;19.066;2022-12-24T02:14:18;99791.22;;;4.39;100.00
60583;BME280;46415;47.536;19.066;2022-12-24T02:17:36;99790.22;;;4.43;100.00
60583;BME280;46415;47.536;19.066;2022-12-24T02:24:21;99801.31;;;4.45;100.00
60583;BME280;46415;47.536;19.066;2022-12-24T02:27:36;99814.03;;;4.50;100.00
60583;BME280;46415;47.536;19.066;2022-12-24T02:30:51;99821.59;;;4.55;100.00
60583;BME280;46415;47.536;19.066;2022-12-24T02:34:03;99844.00;;;4.49;100.00
60583;BME280;46415;47.536;19.066;2022-12-24T02:37:14;99833.91;;;4.43;100.00
60583;BME280;46415;47.536;19.066;2022-12-24T02:40:50;99824.47;;;4.44;100.00
60583;BME280;46415;47.536;19.066;2022-12-24T02:43:55;99821.94;;;4.42;100.00
60583;BME280;46415;47.536;19.066;2022-12-24T02:46:59;99805.25;;;4.26;100.00
60583;BME280;46415;47.536;19.066;2022-12-24T02:50:07;99810.56;;;4.20;100.00
60583;BME280;46415;47.536;19.066;2022-12-24T02:53:13;99796.75;;;4.24;100.00
60583;BME280;46415;47.536;19.066;2022-12-24T03:09:11;99820.19;;;4.44;100.00
60583;BME280;46415;47.536;19.066;2022-12-24T03:12:23;99827.00;;;4.45;100.00
60583;BME280;46415;47.536;19.066;2022-12-24T03:15:28;99843.78;;;4.59;100.00
60583;BME280;46415;47.536;19.066;2022-12-24T03:18:32;99836.13;;;4.56;100.00
60583;BME280;46415;47.536;19.066;2022-12-24T03:21:37;99826.69;;;4.56;100.00
60583;BME280;46415;47.536;19.066;2022-12-24T03:24:41;99811.41;;;4.51;100.00
60583;BME280;46415;47.536;19.066;2022-12-24T03:27:44;99806.50;;;4.42;100.00
60583;BME280;46415;47.536;19.066;2022-12-24T03:30:47;99803.41;;;4.31;100.00
60583;BME280;46415;47.536;19.066;2022-12-24T03:33:52;99794.16;;;4.26;100.00
60583;BME280;46415;47.536;19.066;2022-12-24T03:36:55;99793.22;;;4.28;100.00
60583;BME280;46415;47.536;19.066;2022-12-24T03:40:04;99802.72;;;4.25;100.00
60583;BME280;46415;47.536;19.066;2022-12-24T03:43:08;99803.66;;;4.22;100.00
60583;BME280;46415;47.536;19.066;2022-12-24T03:46:11;99807.31;;;4.14;100.00
60583;BME280;46415;47.536;19.066;2022-12-24T03:49:13;99820.31;;;4.07;100.00
60583;BME280;46415;47.536;19.066;2022-12-24T03:52:17;99832.56;;;3.98;100.00
60583;BME280;46415;47.536;19.066;2022-12-24T03:55:19;99833.50;;;3.94;100.00
60583;BME280;46415;47.536;19.066;2022-12-24T03:58:22;99837.72;;;3.96;100.00
60583;BME280;46415;47.536;19.066;2022-12-24T04:01:26;99852.28;;;3.96;100.00
60583;BME280;46415;47.536;19.066;2022-12-24T04:04:29;99840.34;;;3.93;100.00
60583;BME280;46415;47.536;19.066;2022-12-24T04:07:33;99823.47;;;3.85;100.00
60583;BME280;46415;47.536;19.066;2022-12-24T04:10:39;99835.44;;;3.86;100.00
60583;BME280;46415;47.536;19.066;2022-12-24T04:13:42;99831.22;;;3.82;100.00
60583;BME280;46415;47.536;19.066;2022-12-24T04:16:45;99835.59;;;3.80;100.00
60583;BME280;46415;47.536;19.066;2022-12-24T04:19:48;99836.47;;;3.79;100.00
60583;BME280;46415;47.536;19.066;2022-12-24T04:22:51;99840.00;;;3.75;100.00
60583;BME280;46415;47.536;19.066;2022-12-24T04:25:54;99842.59;;;3.73;100.00
60583;BME280;46415;47.536;19.066;2022-12-24T04:28:59;99835.59;;;3.80;100.00
60583;BME280;46415;47.536;19.066;2022-12-24T04:32:01;99847.59;;;3.78;100.00
60583;BME280;46415;47.536;19.066;2022-12-24T04:35:05;99848.56;;;3.74;100.00
60583;BME280;46415;47.536;19.066;2022-12-24T04:38:08;99846.00;;;3.74;100.00
60583;BME280;46415;47.536;19.066;2022-12-24T04:41:18;99829.66;;;3.76;100.00
60583;BME280;46415;47.536;19.066;2022-12-24T04:44:25;99827.00;;;3.81;100.00
60583;BME280;46415;47.536;19.066;2022-12-24T04:47:28;99826.88;;;3.85;100.00
60583;BME280;46415;47.536;19.066;2022-12-24T04:50:33;99823.31;;;3.91;100.00
60583;BME280;46415;47.536;19.066;2022-12-24T04:53:37;99830.00;;;3.98;100.00
60583;BME280;46415;47.536;19.066;2022-12-24T04:56:40;99836.88;;;3.96;100.00
60583;BME280;46415;47.536;19.066;2022-12-24T04:59:43;99848.91;;;3.94;100.00
60583;BME280;46415;47.536;19.066;2022-12-24T05:02:46;99850.28;;;4.07;100.00
60583;BME280;46415;47.536;19.066;2022-12-24T05:05:49;99847.00;;;4.02;100.00
60583;BME280;46415;47.536;19.066;2022-12-24T05:08:58;99858.22;;;3.98;100.00
60583;BME280;46415;47.536;19.066;2022-12-24T05:12:02;99854.94;;;3.93;100.00
60583;BME280;46415;47.536;19.066;2022-12-24T05:15:05;99848.87;;;3.95;100.00
60583;BME280;46415;47.536;19.066;2022-12-24T05:18:08;99846.28;;;3.97;100.00
60583;BME280;46415;47.536;19.066;2022-12-24T05:21:16;99850.41;;;4.02;100.00
60583;BME280;46415;47.536;19.066;2022-12-24T05:24:20;99858.09;;;4.02;100.00
60583;BME280;46415;47.536;19.066;2022-12-24T05:27:41;99857.25;;;4.02;100.00
60583;BME280;46415;47.536;19.066;2022-12-24T05:30:52;99865.69;;;4.07;100.00
60583;BME280;46415;47.536;19.066;2022-12-24T05:33:55;99877.50;;;4.14;100.00
60583;BME280;46415;47.536;19.066;2022-12-24T05:36:58;99870.50;;;4.19;100.00
60583;BME280;46415;47.536;19.066;2022-12-24T05:40:01;99867.88;;;4.22;100.00
60583;BME280;46415;47.536;19.066;2022-12-24T05:43:05;99874.56;;;4.28;100.00
60583;BME280;46415;47.536;19.066;2022-12-24T05:46:10;99879.66;;;4.29;100.00
60583;BME280;46415;47.536;19.066;2022-12-24T05:49:13;99877.69;;;4.39;100.00
60583;BME280;46415;47.536;19.066;2022-12-24T05:52:16;99883.72;;;4.38;100.00
60583;BME280;46415;47.536;19.066;2022-12-24T05:55:19;99880.31;;;4.37;100.00
60583;BME280;46415;47.536;19.066;2022-12-24T05:58:22;99870.06;;;4.36;100.00
60583;BME280;46415;47.536;19.066;2022-12-24T06:01:25;99873.69;;;4.29;100.00
60583;BME280;46415;47.536;19.066;2022-12-24T06:04:29;99876.38;;;4.24;100.00
60583;BME280;46415;47.536;19.066;2022-12-24T06:07:31;99873.00;;;4.22;100.00
60583;BME280;46415;47.536;19.066;2022-12-24T06:10:40;99867.75;;;4.27;100.00
60583;BME280;46415;47.536;19.066;2022-12-24T06:13:43;99866.22;;;4.20;100.00
60583;BME280;46415;47.536;19.066;2022-12-24T06:16:46;99862.09;;;4.14;100.00
60583;BME280;46415;47.536;19.066;2022-12-24T06:19:49;99870.75;;;4.10;100.00
60583;BME280;46415;47.536;19.066;2022-12-24T06:22:52;99878.41;;;4.11;100.00
60583;BME280;46415;47.536;19.066;2022-12-24T06:25:56;99879.37;;;4.07;100.00
60583;BME280;46415;47.536;19.066;2022-12-24T06:28:59;99880.22;;;4.08;100.00
60583;BME280;46415;47.536;19.066;2022-12-24T06:32:02;99891.22;;;4.13;100.00
60583;BME280;46415;47.536;19.066;2022-12-24T06:35:05;99899.53;;;4.23;100.00
60583;BME280;46415;47.536;19.066;2022-12-24T06:38:08;99893.59;;;4.21;100.00
60583;BME280;46415;47.536;19.066;2022-12-24T06:41:13;99891.75;;;4.26;100.00
60583;BME280;46415;47.536;19.066;2022-12-24T06:44:15;99892.75;;;4.20;100.00
60583;BME280;46415;47.536;19.066;2022-12-24T06:47:18;99896.13;;;4.22;100.00
60583;BME280;46415;47.536;19.066;2022-12-24T06:50:23;99910.59;;;4.25;100.00
60583;BME280;46415;47.536;19.066;2022-12-24T06:53:27;99920.66;;;4.34;100.00
60583;BME280;46415;47.536;19.066;2022-12-24T06:56:29;99926.63;;;4.34;100.00
60583;BME280;46415;47.536;19.066;2022-12-24T06:59:32;99930.81;;;4.38;100.00
60583;BME280;46415;47.536;19.066;2022-12-24T07:02:41;99934.34;;;4.34;100.00
60583;BME280;46415;47.536;19.066;2022-12-24T07:05:44;99938.34;;;4.44;100.00
60583;BME280;46415;47.536;19.066;2022-12-24T07:08:47;99932.28;;;4.47;100.00
60583;BME280;46415;47.536;19.066;2022-12-24T07:11:50;99940.06;;;4.44;100.00
60583;BME280;46415;47.536;19.066;2022-12-24T07:14:53;99952.84;;;4.47;100.00
60583;BME280;46415;47.536;19.066;2022-12-24T07:17:56;99944.22;;;4.49;100.00
60583;BME280;46415;47.536;19.066;2022-12-24T07:21:04;99941.50;;;4.56;100.00
60583;BME280;46415;47.536;19.066;2022-12-24T07:24:08;99943.09;;;4.60;100.00
60583;BME280;46415;47.536;19.066;2022-12-24T07:27:11;99937.75;;;4.67;100.00
60583;BME280;46415;47.536;19.066;2022-12-24T07:30:14;99944.62;;;4.67;100.00
60583;BME280;46415;47.536;19.066;2022-12-24T07:33:17;99948.78;;;4.71;100.00
60583;BME280;46415;47.536;19.066;2022-12-24T07:36:20;99958.13;;;4.75;100.00
60583;BME280;46415;47.536;19.066;2022-12-24T07:39:23;99962.00;;;4.89;100.00
60583;BME280;46415;47.536;19.066;2022-12-24T07:42:26;99971.44;;;4.89;100.00
60583;BME280;46415;47.536;19.066;2022-12-24T07:45:29;99978.19;;;4.93;100.00
60583;BME280;46415;47.536;19.066;2022-12-24T07:48:32;99968.41;;;5.06;100.00
60583;BME280;46415;47.536;19.066;2022-12-24T07:51:35;99983.72;;;5.10;100.00
60583;BME280;46415;47.536;19.066;2022-12-24T07:54:38;99995.47;;;5.19;100.00
60583;BME280;46415;47.536;19.066;2022-12-24T07:57:41;100005.56;;;5.26;100.00
60583;BME280;46415;47.536;19.066;2022-12-24T08:00:45;100007.88;;;5.36;100.00
60583;BME280;46415;47.536;19.066;2022-12-24T08:03:48;100006.91;;;5.40;100.00
60583;BME280;46415;47.536;19.066;2022-12-24T08:06:56;100011.88;;;5.46;100.00
60583;BME280;46415;47.536;19.066;2022-12-24T08:09:59;100013.31;;;5.54;100.00
60583;BME280;46415;47.536;19.066;2022-12-24T08:13:01;100023.31;;;5.65;100.00
60583;BME280;46415;47.536;19.066;2022-12-24T08:16:05;100018.69;;;5.76;100.00
60583;BME280;46415;47.536;19.066;2022-12-24T08:19:08;100036.81;;;5.73;100.00
60583;BME280;46415;47.536;19.066;2022-12-24T08:22:10;100029.75;;;5.80;100.00
60583;BME280;46415;47.536;19.066;2022-12-24T08:25:13;100047.81;;;5.78;100.00
60583;BME280;46415;47.536;19.066;2022-12-24T08:28:18;100058.88;;;5.82;100.00
60583;BME280;46415;47.536;19.066;2022-12-24T08:31:24;100058.63;;;5.91;100.00
60583;BME280;46415;47.536;19.066;2022-12-24T08:34:27;100063.47;;;6.01;100.00
60583;BME280;46415;47.536;19.066;2022-12-24T08:37:29;100068.53;;;6.04;100.00
60583;BME280;46415;47.536;19.066;2022-12-24T08:40:33;100077.66;;;6.14;100.00
60583;BME280;46415;47.536;19.066;2022-12-24T08:43:36;100087.00;;;6.19;100.00
60583;BME280;46415;47.536;19.066;2022-12-24T08:46:39;100093.72;;;6.23;100.00
60583;BME280;46415;47.536;19.066;2022-12-24T08:49:42;100099.41;;;6.34;100.00
60583;BME280;46415;47.536;19.066;2022-12-24T08:52:45;100100.09;;;6.39;100.00
60583;BME280;46415;47.536;19.066;2022-12-24T08:55:48;100100.88;;;6.42;100.00
60583;BME280;46415;47.536;19.066;2022-12-24T08:58:57;100116.88;;;6.52;100.00
60583;BME280;46415;47.536;19.066;2022-12-24T09:02:00;100115.19;;;6.51;100.00
60583;BME280;46415;47.536;19.066;2022-12-24T09:05:04;100112.34;;;6.60;100.00
60583;BME280;46415;47.536;19.066;2022-12-24T09:08:07;100110.03;;;6.51;100.00
60583;BME280;46415;47.536;19.066;2022-12-24T09:11:13;100108.88;;;6.61;100.00
60583;BME280;46415;47.536;19.066;2022-12-24T09:14:16;100114.53;;;6.72;100.00
60583;BME280;46415;47.536;19.066;2022-12-24T09:17:20;100118.69;;;6.76;100.00
60583;BME280;46415;47.536;19.066;2022-12-24T09:20:23;100125.22;;;6.86;100.00
60583;BME280;46415;47.536;19.066;2022-12-24T09:23:26;100135.25;;;6.95;100.00
60583;BME280;46415;47.536;19.066;2022-12-24T09:26:28;100134.00;;;7.07;100.00
60583;BME280;46415;47.536;19.066;2022-12-24T09:29:33;100139.41;;;7.26;100.00
60583;BME280;46415;47.536;19.066;2022-12-24T09:32:35;100137.16;;;7.40;100.00
60583;BME280;46415;47.536;19.066;2022-12-24T09:35:38;100139.91;;;7.60;100.00
60583;BME280;46415;47.536;19.066;2022-12-24T09:38:41;100141.94;;;7.75;100.00
60583;BME280;46415;47.536;19.066;2022-12-24T09:48:15;100129.25;;;8.39;100.00
60583;BME280;46415;47.536;19.066;2022-12-24T09:51:36;100133.91;;;8.75;100.00
60583;BME280;46415;47.536;19.066;2022-12-24T09:54:44;100135.69;;;9.15;100.00
60583;BME280;46415;47.536;19.066;2022-12-24T09:57:53;100136.94;;;9.47;100.00
60583;BME280;46415;47.536;19.066;2022-12-24T10:00:57;100133.41;;;9.68;100.00
60583;BME280;46415;47.536;19.066;2022-12-24T10:04:11;100140.22;;;9.89;100.00
60583;BME280;46415;47.536;19.066;2022-12-24T10:07:28;100144.09;;;9.99;100.00
60583;BME280;46415;47.536;19.066;2022-12-24T10:10:50;100148.28;;;10.22;100.00
60583;BME280;46415;47.536;19.066;2022-12-24T10:14:47;100143.66;;;10.29;100.00
60583;BME280;46415;47.536;19.066;2022-12-24T10:21:12;100147.66;;;10.36;100.00
60583;BME280;46415;47.536;19.066;2022-12-24T10:24:37;100149.28;;;10.55;100.00
60583;BME280;46415;47.536;19.066;2022-12-24T10:27:53;100154.28;;;10.96;100.00
60583;BME280;46415;47.536;19.066;2022-12-24T10:31:00;100157.56;;;11.17;100.00
60583;BME280;46415;47.536;19.066;2022-12-24T10:34:12;100160.72;;;11.40;100.00
60583;BME280;46415;47.536;19.066;2022-12-24T10:37:23;100164.31;;;11.55;100.00
60583;BME280;46415;47.536;19.066;2022-12-24T10:40:37;100169.31;;;11.58;100.00
60583;BME280;46415;47.536;19.066;2022-12-24T10:43:43;100161.28;;;11.63;100.00
60583;BME280;46415;47.536;19.066;2022-12-24T10:46:47;100166.00;;;11.73;100.00
60583;BME280;46415;47.536;19.066;2022-12-24T10:50:03;100163.22;;;11.76;100.00
60583;BME280;46415;47.536;19.066;2022-12-24T10:53:16;100171.78;;;11.78;100.00
60583;BME280;46415;47.536;19.066;2022-12-24T10:56:20;100163.06;;;11.79;100.00
60583;BME280;46415;47.536;19.066;2022-12-24T10:59:28;100168.88;;;11.67;100.00
60583;BME280;46415;47.536;19.066;2022-12-24T11:02:34;100169.78;;;11.66;99.81
60583;BME280;46415;47.536;19.066;2022-12-24T11:05:39;100163.50;;;11.70;97.72
60583;BME280;46415;47.536;19.066;2022-12-24T11:08:43;100180.50;;;11.77;97.17
60583;BME280;46415;47.536;19.066;2022-12-24T11:11:46;100170.25;;;11.74;95.96
60583;BME280;46415;47.536;19.066;2022-12-24T11:14:59;100185.84;;;11.74;93.79
60583;BME280;46415;47.536;19.066;2022-12-24T11:18:12;100173.47;;;11.79;94.42
60583;BME280;46415;47.536;19.066;2022-12-24T11:21:21;100180.19;;;11.83;94.07
60583;BME280;46415;47.536;19.066;2022-12-24T11:24:35;100183.03;;;11.79;92.10
60583;BME280;46415;47.536;19.066;2022-12-24T11:27:42;100205.50;;;11.80;90.30
60583;BME280;46415;47.536;19.066;2022-12-24T11:31:03;100201.44;;;11.74;88.07
60583;BME280;46415;47.536;19.066;2022-12-24T11:34:32;100212.63;;;11.76;86.20
60583;BME280;46415;47.536;19.066;2022-12-24T11:37:34;100218.03;;;11.72;82.58
60583;BME280;46415;47.536;19.066;2022-12-24T11:40:44;100214.22;;;11.79;81.53
60583;BME280;46415;47.536;19.066;2022-12-24T11:43:49;100225.47;;;11.79;83.56
60583;BME280;46415;47.536;19.066;2022-12-24T11:46:54;100213.59;;;11.74;83.62
60583;BME280;46415;47.536;19.066;2022-12-24T11:53:33;100206.34;;;11.80;82.42
60583;BME280;46415;47.536;19.066;2022-12-24T11:56:43;100223.00;;;11.94;82.34
60583;BME280;46415;47.536;19.066;2022-12-24T11:59:49;100218.06;;;12.05;79.41
60583;BME280;46415;47.536;19.066;2022-12-24T12:02:55;100203.16;;;12.08;78.48
60583;BME280;46415;47.536;19.066;2022-12-24T12:06:01;100209.03;;;12.12;78.72
60583;BME280;46415;47.536;19.066;2022-12-24T12:09:09;100213.25;;;12.30;76.20
60583;BME280;46415;47.536;19.066;2022-12-24T12:12:27;100219.75;;;12.39;76.56
60583;BME280;46415;47.536;19.066;2022-12-24T12:15:37;100215.53;;;12.36;76.84
60583;BME280;46415;47.536;19.066;2022-12-24T12:18:46;100214.44;;;12.24;75.27
60583;BME280;46415;47.536;19.066;2022-12-24T12:21:51;100211.56;;;12.29;76.40
60583;BME280;46415;47.536;19.066;2022-12-24T12:24:55;100218.66;;;12.27;75.38
60583;BME280;46415;47.536;19.066;2022-12-24T12:28:01;100223.06;;;12.25;75.47
60583;BME280;46415;47.536;19.066;2022-12-24T12:31:11;100238.50;;;12.28;75.64
60583;BME280;46415;47.536;19.066;2022-12-24T12:34:35;100235.91;;;12.28;76.27
60583;BME280;46415;47.536;19.066;2022-12-24T12:37:42;100238.19;;;12.34;75.68
60583;BME280;46415;47.536;19.066;2022-12-24T12:48:23;100241.78;;;11.99;77.51
60583;BME280;46415;47.536;19.066;2022-12-24T12:58:51;100274.81;;;11.62;80.75
60583;BME280;46415;47.536;19.066;2022-12-24T13:02:20;100279.50;;;11.56;82.00
60583;BME280;46415;47.536;19.066;2022-12-24T13:05:42;100278.00;;;11.50;82.49
60583;BME280;46415;47.536;19.066;2022-12-24T13:09:11;100279.09;;;11.46;83.69
60583;BME280;46415;47.536;19.066;2022-12-24T13:16:04;100281.91;;;11.41;84.77
60583;BME280;46415;47.536;19.066;2022-12-24T13:22:25;100291.31;;;11.44;86.99
60583;BME280;46415;47.536;19.066;2022-12-24T13:25:36;100289.25;;;11.51;86.08
60583;BME280;46415;47.536;19.066;2022-12-24T13:28:40;100297.44;;;11.43;87.71
60583;BME280;46415;47.536;19.066;2022-12-24T13:31:44;100295.81;;;11.40;87.61
60583;BME280;46415;47.536;19.066;2022-12-24T13:44:42;100320.44;;;11.15;90.08
60583;BME280;46415;47.536;19.066;2022-12-24T13:47:45;100315.50;;;11.27;89.33
60583;BME280;46415;47.536;19.066;2022-12-24T13:50:50;100326.91;;;11.25;89.31
60583;BME280;46415;47.536;19.066;2022-12-24T13:53:57;100322.91;;;11.18;89.84
60583;BME280;46415;47.536;19.066;2022-12-24T13:57:01;100319.06;;;10.89;91.95
60583;BME280;46415;47.536;19.066;2022-12-24T14:03:40;100326.78;;;10.72;94.64
60583;BME280;46415;47.536;19.066;2022-12-24T14:06:48;100328.84;;;10.63;95.15
60583;BME280;46415;47.536;19.066;2022-12-24T14:09:53;100330.50;;;10.66;94.93
60583;BME280;46415;47.536;19.066;2022-12-24T14:12:56;100332.16;;;10.67;95.39
60583;BME280;46415;47.536;19.066;2022-12-24T14:16:00;100341.75;;;10.46;97.32
60583;BME280;46415;47.536;19.066;2022-12-24T14:19:25;100347.47;;;10.34;97.62
60583;BME280;46415;47.536;19.066;2022-12-24T14:22:43;100347.84;;;10.25;98.80
60583;BME280;46415;47.536;19.066;2022-12-24T14:25:46;100351.53;;;10.40;98.58
60583;BME280;46415;47.536;19.066;2022-12-24T14:29:05;100362.00;;;10.18;99.68
60583;BME280;46415;47.536;19.066;2022-12-24T14:32:15;100364.09;;;10.08;100.00
60583;BME280;46415;47.536;19.066;2022-12-24T14:35:19;100368.25;;;10.12;100.00
60583;BME280;46415;47.536;19.066;2022-12-24T14:38:23;100372.09;;;10.02;100.00
60583;BME280;46415;47.536;19.066;2022-12-24T14:48:44;100394.31;;;9.66;100.00
60583;BME280;46415;47.536;19.066;2022-12-24T14:55:57;100402.81;;;9.26;100.00
60583;BME280;46415;47.536;19.066;2022-12-24T14:58:52;100406.03;;;9.09;100.00
60583;BME280;46415;47.536;19.066;2022-12-24T15:01:55;100411.28;;;8.83;100.00
60583;BME280;46415;47.536;19.066;2022-12-24T15:08:17;100415.25;;;8.70;100.00
60583;BME280;46415;47.536;19.066;2022-12-24T15:11:22;100409.75;;;8.54;100.00
60583;BME280;46415;47.536;19.066;2022-12-24T15:14:27;100433.28;;;8.46;100.00
60583;BME280;46415;47.536;19.066;2022-12-24T15:17:33;100430.00;;;8.41;100.00
60583;BME280;46415;47.536;19.066;2022-12-24T15:20:36;100424.38;;;8.29;100.00
60583;BME280;46415;47.536;19.066;2022-12-24T15:23:48;100424.97;;;8.10;100.00
60583;BME280;46415;47.536;19.066;2022-12-24T15:26:52;100434.44;;;7.85;100.00
60583;BME280;46415;47.536;19.066;2022-12-24T15:29:56;100432.38;;;7.68;100.00
60583;BME280;46415;47.536;19.066;2022-12-24T15:32:59;100441.28;;;7.58;100.00
60583;BME280;46415;47.536;19.066;2022-12-24T15:36:03;100442.34;;;7.51;100.00
60583;BME280;46415;47.536;19.066;2022-12-24T15:39:13;100449.22;;;7.52;100.00
60583;BME280;46415;47.536;19.066;2022-12-24T15:42:19;100448.59;;;7.44;100.00
60583;BME280;46415;47.536;19.066;2022-12-24T15:45:28;100454.69;;;7.42;100.00
60583;BME280;46415;47.536;19.066;2022-12-24T15:48:32;100466.12;;;7.33;100.00
60583;BME280;46415;47.536;19.066;2022-12-24T15:51:37;100468.06;;;7.26;100.00
60583;BME280;46415;47.536;19.066;2022-12-24T15:54:44;100471.91;;;7.12;100.00
60583;BME280;46415;47.536;19.066;2022-12-24T15:57:47;100460.75;;;7.11;100.00
60583;BME280;46415;47.536;19.066;2022-12-24T16:07:26;100471.59;;;6.91;100.00
60583;BME280;46415;47.536;19.066;2022-12-24T16:14:12;100481.72;;;6.99;100.00
60583;BME280;46415;47.536;19.066;2022-12-24T16:17:24;100481.97;;;6.90;100.00
60583;BME280;46415;47.536;19.066;2022-12-24T16:20:27;100478.94;;;6.74;100.00
60583;BME280;46415;47.536;19.066;2022-12-24T16:23:44;100486.84;;;6.68;100.00
60583;BME280;46415;47.536;19.066;2022-12-24T16:26:47;100492.41;;;6.53;100.00
60583;BME280;46415;47.536;19.066;2022-12-24T16:29:50;100488.16;;;6.84;100.00
60583;BME280;46415;47.536;19.066;2022-12-24T16:32:53;100478.59;;;7.19;100.00
60583;BME280;46415;47.536;19.066;2022-12-24T16:35:56;100483.16;;;7.09;100.00
60583;BME280;46415;47.536;19.066;2022-12-24T16:38:59;100486.06;;;7.28;100.00
60583;BME280;46415;47.536;19.066;2022-12-24T16:42:20;100491.16;;;7.31;100.00
60583;BME280;46415;47.536;19.066;2022-12-24T16:45:43;100496.81;;;7.44;100.00
60583;BME280;46415;47.536;19.066;2022-12-24T16:48:47;100492.09;;;7.27;100.00
60583;BME280;46415;47.536;19.066;2022-12-24T16:51:50;100497.28;;;7.27;100.00
60583;BME280;46415;47.536;19.066;2022-12-24T16:54:54;100501.50;;;7.29;100.00
60583;BME280;46415;47.536;19.066;2022-12-24T16:57:57;100496.09;;;7.38;100.00
60583;BME280;46415;47.536;19.066;2022-12-24T17:01:05;100499.84;;;7.27;100.00
60583;BME280;46415;47.536;19.066;2022-12-24T17:04:09;100511.53;;;7.40;100.00
60583;BME280;46415;47.536;19.066;2022-12-24T17:07:14;100517.41;;;7.45;100.00
60583;BME280;46415;47.536;19.066;2022-12-24T17:10:17;100523.50;;;7.44;100.00
60583;BME280;46415;47.536;19.066;2022-12-24T17:13:20;100527.25;;;7.32;100.00
60583;BME280;46415;47.536;19.066;2022-12-24T17:16:23;100537.81;;;7.23;100.00
60583;BME280;46415;47.536;19.066;2022-12-24T17:19:26;100542.41;;;7.14;100.00
60583;BME280;46415;47.536;19.066;2022-12-24T17:22:29;100540.44;;;6.91;100.00
60583;BME280;46415;47.536;19.066;2022-12-24T17:25:34;100536.59;;;6.73;100.00
60583;BME280;46415;47.536;19.066;2022-12-24T17:28:37;100548.97;;;6.59;100.00
60583;BME280;46415;47.536;19.066;2022-12-24T17:31:41;100551.00;;;6.46;100.00
60583;BME280;46415;47.536;19.066;2022-12-24T17:34:44;100552.28;;;6.29;100.00
60583;BME280;46415;47.536;19.066;2022-12-24T17:37:47;100557.47;;;6.27;100.00